sensor_id;sensor_type;location;lat;lon;timestamp;temperature;humidity
39931;DHT22;26635;-35.248;149.138;2022-10-16T00:02:28;15.70;83.60
39931;DHT22;26635;-35.248;149.138;2022-10-16T00:04:59;16.00;81.50
39931;DHT22;26635;-35.248;149.138;2022-10-16T00:07:29;16.40;79.60
39931;DHT22;26635;-35.248;149.138;2022-10-16T00:09:59;16.80;81.90
39931;DHT22;26635;-35.248;149.138;2022-10-16T00:12:30;17.20;78.30
39931;DHT22;26635;-35.248;149.138;2022-10-16T00:15:00;17.70;79.20
39931;DHT22;26635;-35.248;149.138;2022-10-16T00:17:30;18.10;76.80
39931;DHT22;26635;-35.248;149.138;2022-10-16T00:20:00;18.10;75.90
39931;DHT22;26635;-35.248;149.138;2022-10-16T00:22:31;18.00;74.70
39931;DHT22;26635;-35.248;149.138;2022-10-16T00:25:01;17.80;74.90
39931;DHT22;26635;-35.248;149.138;2022-10-16T00:27:31;17.60;76.00
39931;DHT22;26635;-35.248;149.138;2022-10-16T00:30:03;17.30;76.10
39931;DHT22;26635;-35.248;149.138;2022-10-16T00:32:33;17.00;77.80
39931;DHT22;26635;-35.248;149.138;2022-10-16T00:35:04;16.80;77.70
39931;DHT22;26635;-35.248;149.138;2022-10-16T00:37:34;16.50;78.50
39931;DHT22;26635;-35.248;149.138;2022-10-16T00:40:05;16.30;79.00
39931;DHT22;26635;-35.248;149.138;2022-10-16T00:42:35;16.20;79.40
39931;DHT22;26635;-35.248;149.138;2022-10-16T00:45:06;16.00;80.50
39931;DHT22;26635;-35.248;149.138;2022-10-16T00:47:44;15.90;79.80
39931;DHT22;26635;-35.248;149.138;2022-10-16T00:50:31;15.80;79.30
39931;DHT22;26635;-35.248;149.138;2022-10-16T00:53:02;15.70;79.10
39931;DHT22;26635;-35.248;149.138;2022-10-16T00:55:33;15.70;80.80
39931;DHT22;26635;-35.248;149.138;2022-10-16T00:58:08;15.60;80.30
39931;DHT22;26635;-35.248;149.138;2022-10-16T01:00:39;15.60;81.40
39931;DHT22;26635;-35.248;149.138;2022-10-16T01:03:33;15.70;81.80
39931;DHT22;26635;-35.248;149.138;2022-10-16T01:06:21;15.70;79.10
39931;DHT22;26635;-35.248;149.138;2022-10-16T01:09:10;15.70;80.40
39931;DHT22;26635;-35.248;149.138;2022-10-16T01:14:54;15.70;79.60
39931;DHT22;26635;-35.248;149.138;2022-10-16T01:20:50;15.90;79.90
39931;DHT22;26635;-35.248;149.138;2022-10-16T01:32:28;16.00;79.20
39931;DHT22;26635;-35.248;149.138;2022-10-16T01:35:14;16.20;78.20
39931;DHT22;26635;-35.248;149.138;2022-10-16T01:38:10;16.40;79.40
39931;DHT22;26635;-35.248;149.138;2022-10-16T01:40:43;16.50;79.20
39931;DHT22;26635;-35.248;149.138;2022-10-16T01:43:35;16.60;78.00
39931;DHT22;26635;-35.248;149.138;2022-10-16T01:46:09;16.60;77.20
39931;DHT22;26635;-35.248;149.138;2022-10-16T01:48:41;16.50;77.50
39931;DHT22;26635;-35.248;149.138;2022-10-16T01:51:16;16.50;78.20
39931;DHT22;26635;-35.248;149.138;2022-10-16T01:53:52;16.50;77.30
39931;DHT22;26635;-35.248;149.138;2022-10-16T01:56:24;16.40;76.60
39931;DHT22;26635;-35.248;149.138;2022-10-16T01:59:06;16.30;78.80
39931;DHT22;26635;-35.248;149.138;2022-10-16T02:01:41;16.20;78.70
39931;DHT22;26635;-35.248;149.138;2022-10-16T02:04:33;16.30;78.10
39931;DHT22;26635;-35.248;149.138;2022-10-16T02:07:06;16.20;78.90
39931;DHT22;26635;-35.248;149.138;2022-10-16T02:09:37;16.40;77.80
39931;DHT22;26635;-35.248;149.138;2022-10-16T02:12:31;16.60;77.90
39931;DHT22;26635;-35.248;149.138;2022-10-16T02:15:03;17.00;76.80
39931;DHT22;26635;-35.248;149.138;2022-10-16T02:17:35;17.40;75.50
39931;DHT22;26635;-35.248;149.138;2022-10-16T02:20:06;17.80;74.50
39931;DHT22;26635;-35.248;149.138;2022-10-16T02:22:44;18.20;75.00
39931;DHT22;26635;-35.248;149.138;2022-10-16T02:25:27;18.40;73.40
39931;DHT22;26635;-35.248;149.138;2022-10-16T02:28:25;18.80;73.20
39931;DHT22;26635;-35.248;149.138;2022-10-16T02:31:01;18.90;71.20
39931;DHT22;26635;-35.248;149.138;2022-10-16T02:33:34;19.20;71.10
39931;DHT22;26635;-35.248;149.138;2022-10-16T02:36:06;19.40;70.60
39931;DHT22;26635;-35.248;149.138;2022-10-16T02:38:37;19.50;70.60
39931;DHT22;26635;-35.248;149.138;2022-10-16T02:41:08;19.60;69.40
39931;DHT22;26635;-35.248;149.138;2022-10-16T02:43:38;19.40;65.50
39931;DHT22;26635;-35.248;149.138;2022-10-16T02:46:08;19.10;68.70
39931;DHT22;26635;-35.248;149.138;2022-10-16T02:48:39;18.90;68.60
39931;DHT22;26635;-35.248;149.138;2022-10-16T02:51:09;18.90;69.10
39931;DHT22;26635;-35.248;149.138;2022-10-16T02:53:39;19.10;68.20
39931;DHT22;26635;-35.248;149.138;2022-10-16T02:56:11;19.30;70.30
39931;DHT22;26635;-35.248;149.138;2022-10-16T02:58:42;19.40;68.10
39931;DHT22;26635;-35.248;149.138;2022-10-16T03:01:12;19.40;67.50
39931;DHT22;26635;-35.248;149.138;2022-10-16T03:03:44;19.20;65.00
39931;DHT22;26635;-35.248;149.138;2022-10-16T03:06:14;18.90;68.20
39931;DHT22;26635;-35.248;149.138;2022-10-16T03:08:45;18.80;68.50
39931;DHT22;26635;-35.248;149.138;2022-10-16T03:11:15;18.80;68.00
39931;DHT22;26635;-35.248;149.138;2022-10-16T03:13:46;19.00;69.60
39931;DHT22;26635;-35.248;149.138;2022-10-16T03:16:16;19.20;69.00
39931;DHT22;26635;-35.248;149.138;2022-10-16T03:18:49;19.20;67.40
39931;DHT22;26635;-35.248;149.138;2022-10-16T03:21:20;19.10;68.20
39931;DHT22;26635;-35.248;149.138;2022-10-16T03:23:51;18.90;69.30
39931;DHT22;26635;-35.248;149.138;2022-10-16T03:26:21;18.70;69.70
39931;DHT22;26635;-35.248;149.138;2022-10-16T03:28:52;18.60;69.70
39931;DHT22;26635;-35.248;149.138;2022-10-16T03:31:22;18.60;69.00
39931;DHT22;26635;-35.248;149.138;2022-10-16T03:33:52;18.60;68.80
39931;DHT22;26635;-35.248;149.138;2022-10-16T03:36:22;18.70;68.60
39931;DHT22;26635;-35.248;149.138;2022-10-16T03:38:53;18.70;68.80
39931;DHT22;26635;-35.248;149.138;2022-10-16T03:41:23;18.80;71.30
39931;DHT22;26635;-35.248;149.138;2022-10-16T03:43:53;18.80;70.70
39931;DHT22;26635;-35.248;149.138;2022-10-16T03:46:23;18.80;70.30
39931;DHT22;26635;-35.248;149.138;2022-10-16T03:48:54;18.80;68.90
39931;DHT22;26635;-35.248;149.138;2022-10-16T03:51:25;18.90;68.90
39931;DHT22;26635;-35.248;149.138;2022-10-16T03:53:56;18.90;69.50
39931;DHT22;26635;-35.248;149.138;2022-10-16T03:56:27;18.90;67.30
39931;DHT22;26635;-35.248;149.138;2022-10-16T03:58:57;19.10;68.40
39931;DHT22;26635;-35.248;149.138;2022-10-16T04:01:27;19.20;68.30
39931;DHT22;26635;-35.248;149.138;2022-10-16T04:03:57;19.30;69.10
39931;DHT22;26635;-35.248;149.138;2022-10-16T04:06:28;19.30;68.20
39931;DHT22;26635;-35.248;149.138;2022-10-16T04:08:59;19.50;68.40
39931;DHT22;26635;-35.248;149.138;2022-10-16T04:11:31;19.50;68.30
39931;DHT22;26635;-35.248;149.138;2022-10-16T04:14:02;19.40;68.30
39931;DHT22;26635;-35.248;149.138;2022-10-16T04:16:32;19.20;68.90
39931;DHT22;26635;-35.248;149.138;2022-10-16T04:19:03;19.00;69.10
39931;DHT22;26635;-35.248;149.138;2022-10-16T04:21:33;18.70;69.60
39931;DHT22;26635;-35.248;149.138;2022-10-16T04:24:05;18.50;69.70
39931;DHT22;26635;-35.248;149.138;2022-10-16T04:26:36;18.30;70.40
39931;DHT22;26635;-35.248;149.138;2022-10-16T04:29:06;18.20;71.40
39931;DHT22;26635;-35.248;149.138;2022-10-16T04:31:37;18.20;69.90
39931;DHT22;26635;-35.248;149.138;2022-10-16T04:34:08;18.20;70.90
39931;DHT22;26635;-35.248;149.138;2022-10-16T04:36:38;18.10;71.00
39931;DHT22;26635;-35.248;149.138;2022-10-16T04:39:09;18.20;69.90
39931;DHT22;26635;-35.248;149.138;2022-10-16T04:41:40;18.20;70.80
39931;DHT22;26635;-35.248;149.138;2022-10-16T04:44:10;18.20;70.60
39931;DHT22;26635;-35.248;149.138;2022-10-16T04:46:41;18.20;70.80
39931;DHT22;26635;-35.248;149.138;2022-10-16T04:49:11;18.20;70.20
39931;DHT22;26635;-35.248;149.138;2022-10-16T04:51:41;18.30;71.00
39931;DHT22;26635;-35.248;149.138;2022-10-16T04:54:12;18.40;70.40
39931;DHT22;26635;-35.248;149.138;2022-10-16T04:56:43;18.40;70.40
39931;DHT22;26635;-35.248;149.138;2022-10-16T04:59:17;18.50;71.00
39931;DHT22;26635;-35.248;149.138;2022-10-16T05:01:48;18.50;69.50
39931;DHT22;26635;-35.248;149.138;2022-10-16T05:04:19;18.50;70.60
39931;DHT22;26635;-35.248;149.138;2022-10-16T05:06:49;18.50;70.20
39931;DHT22;26635;-35.248;149.138;2022-10-16T05:09:20;18.50;70.00
39931;DHT22;26635;-35.248;149.138;2022-10-16T05:11:51;18.50;70.30
39931;DHT22;26635;-35.248;149.138;2022-10-16T05:14:22;18.50;70.40
39931;DHT22;26635;-35.248;149.138;2022-10-16T05:16:52;18.50;70.70
39931;DHT22;26635;-35.248;149.138;2022-10-16T05:19:22;18.50;70.20
39931;DHT22;26635;-35.248;149.138;2022-10-16T05:21:55;18.50;69.60
39931;DHT22;26635;-35.248;149.138;2022-10-16T05:24:27;18.50;70.10
39931;DHT22;26635;-35.248;149.138;2022-10-16T05:26:57;18.50;70.50
39931;DHT22;26635;-35.248;149.138;2022-10-16T05:29:28;18.50;70.80
39931;DHT22;26635;-35.248;149.138;2022-10-16T05:31:58;18.50;71.70
39931;DHT22;26635;-35.248;149.138;2022-10-16T05:34:28;18.50;71.10
39931;DHT22;26635;-35.248;149.138;2022-10-16T05:36:58;18.50;71.10
39931;DHT22;26635;-35.248;149.138;2022-10-16T05:39:28;18.50;71.00
39931;DHT22;26635;-35.248;149.138;2022-10-16T05:41:58;18.50;70.60
39931;DHT22;26635;-35.248;149.138;2022-10-16T05:44:29;18.40;70.60
39931;DHT22;26635;-35.248;149.138;2022-10-16T05:46:59;18.40;70.20
39931;DHT22;26635;-35.248;149.138;2022-10-16T05:49:29;18.30;70.70
39931;DHT22;26635;-35.248;149.138;2022-10-16T05:52:02;18.20;71.00
39931;DHT22;26635;-35.248;149.138;2022-10-16T05:54:32;18.20;70.70
39931;DHT22;26635;-35.248;149.138;2022-10-16T05:57:02;18.10;70.60
39931;DHT22;26635;-35.248;149.138;2022-10-16T05:59:35;18.10;71.50
39931;DHT22;26635;-35.248;149.138;2022-10-16T06:02:08;18.00;71.00
39931;DHT22;26635;-35.248;149.138;2022-10-16T06:04:39;18.00;72.10
39931;DHT22;26635;-35.248;149.138;2022-10-16T06:07:09;18.00;72.10
39931;DHT22;26635;-35.248;149.138;2022-10-16T06:09:40;17.90;72.10
39931;DHT22;26635;-35.248;149.138;2022-10-16T06:12:11;17.90;71.50
39931;DHT22;26635;-35.248;149.138;2022-10-16T06:14:42;17.80;72.80
39931;DHT22;26635;-35.248;149.138;2022-10-16T06:17:16;17.70;72.80
39931;DHT22;26635;-35.248;149.138;2022-10-16T06:19:46;17.70;73.30
39931;DHT22;26635;-35.248;149.138;2022-10-16T06:22:16;17.60;72.90
39931;DHT22;26635;-35.248;149.138;2022-10-16T06:24:47;17.50;74.20
39931;DHT22;26635;-35.248;149.138;2022-10-16T06:27:18;17.50;74.40
39931;DHT22;26635;-35.248;149.138;2022-10-16T06:29:50;17.40;73.80
39931;DHT22;26635;-35.248;149.138;2022-10-16T06:32:20;17.30;73.10
39931;DHT22;26635;-35.248;149.138;2022-10-16T06:34:51;17.30;74.10
39931;DHT22;26635;-35.248;149.138;2022-10-16T06:37:21;17.30;75.50
39931;DHT22;26635;-35.248;149.138;2022-10-16T06:39:52;17.30;74.40
39931;DHT22;26635;-35.248;149.138;2022-10-16T06:42:23;17.20;73.40
39931;DHT22;26635;-35.248;149.138;2022-10-16T06:44:53;17.20;72.70
39931;DHT22;26635;-35.248;149.138;2022-10-16T06:47:24;17.20;73.80
39931;DHT22;26635;-35.248;149.138;2022-10-16T06:49:54;17.10;75.00
39931;DHT22;26635;-35.248;149.138;2022-10-16T06:52:24;17.10;73.60
39931;DHT22;26635;-35.248;149.138;2022-10-16T06:54:57;17.10;73.70
39931;DHT22;26635;-35.248;149.138;2022-10-16T06:57:27;17.00;74.70
39931;DHT22;26635;-35.248;149.138;2022-10-16T06:59:58;17.00;74.80
39931;DHT22;26635;-35.248;149.138;2022-10-16T07:02:28;17.00;75.20
39931;DHT22;26635;-35.248;149.138;2022-10-16T07:04:58;16.90;75.00
39931;DHT22;26635;-35.248;149.138;2022-10-16T07:07:28;16.90;75.10
39931;DHT22;26635;-35.248;149.138;2022-10-16T07:09:59;16.80;74.70
39931;DHT22;26635;-35.248;149.138;2022-10-16T07:12:29;16.70;75.20
39931;DHT22;26635;-35.248;149.138;2022-10-16T07:15:01;16.80;75.50
39931;DHT22;26635;-35.248;149.138;2022-10-16T07:17:31;16.70;75.30
39931;DHT22;26635;-35.248;149.138;2022-10-16T07:20:02;16.60;76.20
39931;DHT22;26635;-35.248;149.138;2022-10-16T07:22:32;16.60;76.00
39931;DHT22;26635;-35.248;149.138;2022-10-16T07:25:03;16.50;76.30
39931;DHT22;26635;-35.248;149.138;2022-10-16T07:27:33;16.50;77.60
39931;DHT22;26635;-35.248;149.138;2022-10-16T07:30:04;16.40;77.00
39931;DHT22;26635;-35.248;149.138;2022-10-16T07:32:36;16.40;77.20
39931;DHT22;26635;-35.248;149.138;2022-10-16T07:35:07;16.30;76.60
39931;DHT22;26635;-35.248;149.138;2022-10-16T07:37:38;16.20;77.60
39931;DHT22;26635;-35.248;149.138;2022-10-16T07:40:09;16.10;77.90
39931;DHT22;26635;-35.248;149.138;2022-10-16T07:42:40;16.00;77.90
39931;DHT22;26635;-35.248;149.138;2022-10-16T07:45:10;15.90;78.20
39931;DHT22;26635;-35.248;149.138;2022-10-16T07:47:41;15.90;78.70
39931;DHT22;26635;-35.248;149.138;2022-10-16T07:50:12;15.90;77.80
39931;DHT22;26635;-35.248;149.138;2022-10-16T07:52:42;15.90;77.60
39931;DHT22;26635;-35.248;149.138;2022-10-16T07:55:14;15.90;77.60
39931;DHT22;26635;-35.248;149.138;2022-10-16T07:57:46;15.90;78.10
39931;DHT22;26635;-35.248;149.138;2022-10-16T08:00:16;15.90;78.10
39931;DHT22;26635;-35.248;149.138;2022-10-16T08:02:47;15.90;78.70
39931;DHT22;26635;-35.248;149.138;2022-10-16T08:05:18;15.90;78.80
39931;DHT22;26635;-35.248;149.138;2022-10-16T08:07:49;15.90;78.70
39931;DHT22;26635;-35.248;149.138;2022-10-16T08:10:22;15.90;79.00
39931;DHT22;26635;-35.248;149.138;2022-10-16T08:12:54;15.90;78.80
39931;DHT22;26635;-35.248;149.138;2022-10-16T08:15:24;15.80;78.70
39931;DHT22;26635;-35.248;149.138;2022-10-16T08:18:04;15.80;79.20
39931;DHT22;26635;-35.248;149.138;2022-10-16T08:20:34;15.80;79.50
39931;DHT22;26635;-35.248;149.138;2022-10-16T08:23:05;15.70;79.40
39931;DHT22;26635;-35.248;149.138;2022-10-16T08:25:37;15.70;79.60
39931;DHT22;26635;-35.248;149.138;2022-10-16T08:28:10;15.60;79.40
39931;DHT22;26635;-35.248;149.138;2022-10-16T08:30:41;15.60;78.90
39931;DHT22;26635;-35.248;149.138;2022-10-16T08:33:12;15.60;79.10
39931;DHT22;26635;-35.248;149.138;2022-10-16T08:35:49;15.60;78.70
39931;DHT22;26635;-35.248;149.138;2022-10-16T08:38:20;15.50;79.20
39931;DHT22;26635;-35.248;149.138;2022-10-16T08:40:51;15.60;79.50
39931;DHT22;26635;-35.248;149.138;2022-10-16T08:46:30;15.50;79.30
39931;DHT22;26635;-35.248;149.138;2022-10-16T08:49:10;15.50;79.10
39931;DHT22;26635;-35.248;149.138;2022-10-16T08:51:43;15.50;79.60
39931;DHT22;26635;-35.248;149.138;2022-10-16T08:57:18;15.40;79.40
39931;DHT22;26635;-35.248;149.138;2022-10-16T08:59:52;15.40;79.60
39931;DHT22;26635;-35.248;149.138;2022-10-16T09:02:39;15.40;80.60
39931;DHT22;26635;-35.248;149.138;2022-10-16T09:17:11;15.20;79.70
39931;DHT22;26635;-35.248;149.138;2022-10-16T09:19:50;15.20;80.30
39931;DHT22;26635;-35.248;149.138;2022-10-16T09:22:25;15.20;80.00
39931;DHT22;26635;-35.248;149.138;2022-10-16T09:25:00;15.20;80.30
39931;DHT22;26635;-35.248;149.138;2022-10-16T09:27:31;15.10;80.50
39931;DHT22;26635;-35.248;149.138;2022-10-16T09:30:10;15.10;81.00
39931;DHT22;26635;-35.248;149.138;2022-10-16T09:32:43;15.10;79.60
39931;DHT22;26635;-35.248;149.138;2022-10-16T09:35:18;15.10;80.40
39931;DHT22;26635;-35.248;149.138;2022-10-16T09:37:51;15.00;80.30
39931;DHT22;26635;-35.248;149.138;2022-10-16T09:43:24;15.00;80.50
39931;DHT22;26635;-35.248;149.138;2022-10-16T09:46:03;15.00;80.40
39931;DHT22;26635;-35.248;149.138;2022-10-16T09:48:42;15.00;81.10
39931;DHT22;26635;-35.248;149.138;2022-10-16T09:53:59;15.00;81.40
39931;DHT22;26635;-35.248;149.138;2022-10-16T09:56:35;15.00;81.20
39931;DHT22;26635;-35.248;149.138;2022-10-16T09:59:20;15.00;81.70
39931;DHT22;26635;-35.248;149.138;2022-10-16T10:01:52;15.00;81.80
39931;DHT22;26635;-35.248;149.138;2022-10-16T10:04:24;15.00;81.70
39931;DHT22;26635;-35.248;149.138;2022-10-16T10:06:58;14.90;82.20
39931;DHT22;26635;-35.248;149.138;2022-10-16T10:09:39;14.90;84.90
39931;DHT22;26635;-35.248;149.138;2022-10-16T10:12:24;14.80;86.90
39931;DHT22;26635;-35.248;149.138;2022-10-16T10:15:06;14.70;87.90
39931;DHT22;26635;-35.248;149.138;2022-10-16T10:17:46;14.60;88.10
39931;DHT22;26635;-35.248;149.138;2022-10-16T10:23:15;14.30;90.00
39931;DHT22;26635;-35.248;149.138;2022-10-16T10:31:49;14.10;90.70
39931;DHT22;26635;-35.248;149.138;2022-10-16T10:34:48;14.00;91.00
39931;DHT22;26635;-35.248;149.138;2022-10-16T10:40:40;14.00;91.10
39931;DHT22;26635;-35.248;149.138;2022-10-16T10:46:05;14.00;91.20
39931;DHT22;26635;-35.248;149.138;2022-10-16T10:54:18;13.90;91.20
39931;DHT22;26635;-35.248;149.138;2022-10-16T10:57:02;13.80;91.20
39931;DHT22;26635;-35.248;149.138;2022-10-16T11:07:39;13.80;91.60
39931;DHT22;26635;-35.248;149.138;2022-10-16T11:10:29;13.70;91.20
39931;DHT22;26635;-35.248;149.138;2022-10-16T11:13:25;13.70;91.10
39931;DHT22;26635;-35.248;149.138;2022-10-16T11:16:00;13.60;90.90
39931;DHT22;26635;-35.248;149.138;2022-10-16T11:21:18;13.60;91.20
39931;DHT22;26635;-35.248;149.138;2022-10-16T11:24:05;13.60;91.20
39931;DHT22;26635;-35.248;149.138;2022-10-16T11:26:42;13.60;90.90
39931;DHT22;26635;-35.248;149.138;2022-10-16T11:29:28;13.50;90.90
39931;DHT22;26635;-35.248;149.138;2022-10-16T11:32:38;13.40;90.90
39931;DHT22;26635;-35.248;149.138;2022-10-16T11:35:25;13.40;90.90
39931;DHT22;26635;-35.248;149.138;2022-10-16T11:38:01;13.30;90.80
39931;DHT22;26635;-35.248;149.138;2022-10-16T11:40:35;13.30;91.00
39931;DHT22;26635;-35.248;149.138;2022-10-16T11:43:26;13.20;91.10
39931;DHT22;26635;-35.248;149.138;2022-10-16T11:46:04;13.20;91.20
39931;DHT22;26635;-35.248;149.138;2022-10-16T11:49:08;13.10;91.30
39931;DHT22;26635;-35.248;149.138;2022-10-16T11:57:21;13.00;91.10
39931;DHT22;26635;-35.248;149.138;2022-10-16T12:08:12;12.80;91.00
39931;DHT22;26635;-35.248;149.138;2022-10-16T12:10:47;12.70;91.00
39931;DHT22;26635;-35.248;149.138;2022-10-16T12:16:22;12.60;91.00
39931;DHT22;26635;-35.248;149.138;2022-10-16T12:19:15;12.60;90.40
39931;DHT22;26635;-35.248;149.138;2022-10-16T12:21:46;12.50;90.60
39931;DHT22;26635;-35.248;149.138;2022-10-16T12:24:33;12.40;90.40
39931;DHT22;26635;-35.248;149.138;2022-10-16T12:27:06;12.40;90.80
39931;DHT22;26635;-35.248;149.138;2022-10-16T12:29:39;12.30;91.20
39931;DHT22;26635;-35.248;149.138;2022-10-16T12:36:07;12.20;91.00
39931;DHT22;26635;-35.248;149.138;2022-10-16T12:38:35;12.20;91.10
39931;DHT22;26635;-35.248;149.138;2022-10-16T12:41:08;12.10;91.40
39931;DHT22;26635;-35.248;149.138;2022-10-16T12:43:42;12.10;91.10
39931;DHT22;26635;-35.248;149.138;2022-10-16T12:48:44;12.10;91.20
39931;DHT22;26635;-35.248;149.138;2022-10-16T12:51:36;12.10;90.90
39931;DHT22;26635;-35.248;149.138;2022-10-16T12:54:37;12.10;91.20
39931;DHT22;26635;-35.248;149.138;2022-10-16T13:14:22;12.30;91.00
39931;DHT22;26635;-35.248;149.138;2022-10-16T13:20:16;12.40;90.90
39931;DHT22;26635;-35.248;149.138;2022-10-16T13:28:33;12.40;91.10
39931;DHT22;26635;-35.248;149.138;2022-10-16T13:31:05;12.50;90.50
39931;DHT22;26635;-35.248;149.138;2022-10-16T13:33:43;12.50;91.00
39931;DHT22;26635;-35.248;149.138;2022-10-16T13:36:26;12.50;91.10
39931;DHT22;26635;-35.248;149.138;2022-10-16T13:42:10;12.40;91.20
39931;DHT22;26635;-35.248;149.138;2022-10-16T13:44:49;12.30;90.80
39931;DHT22;26635;-35.248;149.138;2022-10-16T13:47:26;12.40;91.30
39931;DHT22;26635;-35.248;149.138;2022-10-16T13:50:09;12.30;90.90
39931;DHT22;26635;-35.248;149.138;2022-10-16T13:52:40;12.30;91.20
39931;DHT22;26635;-35.248;149.138;2022-10-16T13:55:18;12.30;90.80
39931;DHT22;26635;-35.248;149.138;2022-10-16T13:57:49;12.30;90.90
39931;DHT22;26635;-35.248;149.138;2022-10-16T14:00:26;12.40;91.50
39931;DHT22;26635;-35.248;149.138;2022-10-16T14:03:11;12.40;91.50
39931;DHT22;26635;-35.248;149.138;2022-10-16T14:06:03;12.40;91.30
39931;DHT22;26635;-35.248;149.138;2022-10-16T14:08:34;12.30;91.00
39931;DHT22;26635;-35.248;149.138;2022-10-16T14:11:04;12.30;91.40
39931;DHT22;26635;-35.248;149.138;2022-10-16T14:13:43;12.30;91.60
39931;DHT22;26635;-35.248;149.138;2022-10-16T14:16:27;12.30;91.40
39931;DHT22;26635;-35.248;149.138;2022-10-16T14:19:03;12.30;91.40
39931;DHT22;26635;-35.248;149.138;2022-10-16T14:21:41;12.20;91.30
39931;DHT22;26635;-35.248;149.138;2022-10-16T14:24:12;12.20;91.20
39931;DHT22;26635;-35.248;149.138;2022-10-16T14:26:44;12.10;91.50
39931;DHT22;26635;-35.248;149.138;2022-10-16T14:29:19;12.00;91.70
39931;DHT22;26635;-35.248;149.138;2022-10-16T14:32:24;11.90;91.80
39931;DHT22;26635;-35.248;149.138;2022-10-16T14:34:55;11.90;91.90
39931;DHT22;26635;-35.248;149.138;2022-10-16T14:37:28;11.70;92.20
39931;DHT22;26635;-35.248;149.138;2022-10-16T14:40:00;11.70;92.10
39931;DHT22;26635;-35.248;149.138;2022-10-16T14:42:31;11.70;92.50
39931;DHT22;26635;-35.248;149.138;2022-10-16T14:45:08;11.60;92.40
39931;DHT22;26635;-35.248;149.138;2022-10-16T14:47:58;11.60;92.60
39931;DHT22;26635;-35.248;149.138;2022-10-16T14:50:29;11.50;92.90
39931;DHT22;26635;-35.248;149.138;2022-10-16T14:53:00;11.50;92.80
39931;DHT22;26635;-35.248;149.138;2022-10-16T14:55:30;11.50;92.60
39931;DHT22;26635;-35.248;149.138;2022-10-16T14:58:00;11.50;92.90
39931;DHT22;26635;-35.248;149.138;2022-10-16T15:00:31;11.50;93.20
39931;DHT22;26635;-35.248;149.138;2022-10-16T15:03:02;11.50;93.30
39931;DHT22;26635;-35.248;149.138;2022-10-16T15:05:32;11.50;93.30
39931;DHT22;26635;-35.248;149.138;2022-10-16T15:08:03;11.50;93.30
39931;DHT22;26635;-35.248;149.138;2022-10-16T15:10:41;11.60;93.30
39931;DHT22;26635;-35.248;149.138;2022-10-16T15:13:14;11.60;93.30
39931;DHT22;26635;-35.248;149.138;2022-10-16T15:15:45;11.70;93.30
39931;DHT22;26635;-35.248;149.138;2022-10-16T15:18:16;11.70;93.10
39931;DHT22;26635;-35.248;149.138;2022-10-16T15:20:50;11.80;93.00
39931;DHT22;26635;-35.248;149.138;2022-10-16T15:23:22;11.80;93.00
39931;DHT22;26635;-35.248;149.138;2022-10-16T15:25:54;11.80;93.00
39931;DHT22;26635;-35.248;149.138;2022-10-16T15:28:26;11.80;93.00
39931;DHT22;26635;-35.248;149.138;2022-10-16T15:30:57;11.80;93.00
39931;DHT22;26635;-35.248;149.138;2022-10-16T15:33:28;11.80;92.80
39931;DHT22;26635;-35.248;149.138;2022-10-16T15:36:07;11.80;92.90
39931;DHT22;26635;-35.248;149.138;2022-10-16T15:38:37;11.80;93.00
39931;DHT22;26635;-35.248;149.138;2022-10-16T15:41:07;11.70;93.10
39931;DHT22;26635;-35.248;149.138;2022-10-16T15:43:38;11.70;93.30
39931;DHT22;26635;-35.248;149.138;2022-10-16T15:46:12;11.60;93.30
39931;DHT22;26635;-35.248;149.138;2022-10-16T15:48:43;11.60;93.40
39931;DHT22;26635;-35.248;149.138;2022-10-16T15:51:14;11.70;93.50
39931;DHT22;26635;-35.248;149.138;2022-10-16T15:53:44;11.70;93.40
39931;DHT22;26635;-35.248;149.138;2022-10-16T15:56:15;11.70;93.50
39931;DHT22;26635;-35.248;149.138;2022-10-16T15:58:46;11.70;93.30
39931;DHT22;26635;-35.248;149.138;2022-10-16T16:01:16;11.70;93.30
39931;DHT22;26635;-35.248;149.138;2022-10-16T16:03:46;11.70;93.20
39931;DHT22;26635;-35.248;149.138;2022-10-16T16:06:16;11.70;93.10
39931;DHT22;26635;-35.248;149.138;2022-10-16T16:08:47;11.70;92.90
39931;DHT22;26635;-35.248;149.138;2022-10-16T16:11:18;11.70;92.80
39931;DHT22;26635;-35.248;149.138;2022-10-16T16:13:49;11.70;92.80
39931;DHT22;26635;-35.248;149.138;2022-10-16T16:16:19;11.80;92.60
39931;DHT22;26635;-35.248;149.138;2022-10-16T16:18:53;11.80;92.70
39931;DHT22;26635;-35.248;149.138;2022-10-16T16:21:23;11.80;92.50
39931;DHT22;26635;-35.248;149.138;2022-10-16T16:23:54;11.90;92.60
39931;DHT22;26635;-35.248;149.138;2022-10-16T16:26:28;11.80;92.40
39931;DHT22;26635;-35.248;149.138;2022-10-16T16:29:07;11.90;92.60
39931;DHT22;26635;-35.248;149.138;2022-10-16T16:31:39;11.90;92.50
39931;DHT22;26635;-35.248;149.138;2022-10-16T16:34:09;11.90;92.20
39931;DHT22;26635;-35.248;149.138;2022-10-16T16:36:41;11.90;92.10
39931;DHT22;26635;-35.248;149.138;2022-10-16T16:39:12;11.80;92.00
39931;DHT22;26635;-35.248;149.138;2022-10-16T16:41:44;11.90;92.20
39931;DHT22;26635;-35.248;149.138;2022-10-16T16:44:18;11.80;92.00
39931;DHT22;26635;-35.248;149.138;2022-10-16T16:46:49;11.80;91.90
39931;DHT22;26635;-35.248;149.138;2022-10-16T16:49:19;11.80;91.90
39931;DHT22;26635;-35.248;149.138;2022-10-16T16:51:50;11.80;92.10
39931;DHT22;26635;-35.248;149.138;2022-10-16T16:54:20;11.70;91.80
39931;DHT22;26635;-35.248;149.138;2022-10-16T16:56:51;11.70;91.80
39931;DHT22;26635;-35.248;149.138;2022-10-16T16:59:22;11.70;91.60
39931;DHT22;26635;-35.248;149.138;2022-10-16T17:01:52;11.70;92.00
39931;DHT22;26635;-35.248;149.138;2022-10-16T17:04:24;11.70;91.70
39931;DHT22;26635;-35.248;149.138;2022-10-16T17:06:55;11.70;91.60
39931;DHT22;26635;-35.248;149.138;2022-10-16T17:09:25;11.60;91.70
39931;DHT22;26635;-35.248;149.138;2022-10-16T17:11:56;11.60;91.50
39931;DHT22;26635;-35.248;149.138;2022-10-16T17:14:28;11.60;91.50
39931;DHT22;26635;-35.248;149.138;2022-10-16T17:17:00;11.60;91.60
39931;DHT22;26635;-35.248;149.138;2022-10-16T17:19:30;11.60;91.50
39931;DHT22;26635;-35.248;149.138;2022-10-16T17:22:01;11.60;91.70
39931;DHT22;26635;-35.248;149.138;2022-10-16T17:24:31;11.60;91.50
39931;DHT22;26635;-35.248;149.138;2022-10-16T17:27:02;11.60;91.20
39931;DHT22;26635;-35.248;149.138;2022-10-16T17:29:33;11.60;91.20
39931;DHT22;26635;-35.248;149.138;2022-10-16T17:32:04;11.50;91.20